Time;durP1;ratioP1;P1;durP2;ratioP2;P2;SDS_P1;SDS_P2;PMS_P1;PMS_P2;Temp;Humidity;BMP_temperature;BMP_pressure;BME280_temperature;BME280_humidity;BME280_pressure;Samples;Min_cycle;Max_cycle;Signal;HPM_P1;HPM_P2
2022/05/19 00:01:53;;;;;;;5.22;3.38;;;14.00;99.90;;;;;;5065803;28;20040;-67
2022/05/19 00:04:20;;;;;;;9.38;3.00;;;14.00;99.90;;;;;;5065525;28;20063;-67
2022/05/19 00:06:47;;;;;;;4.20;3.10;;;14.00;99.90;;;;;;5070972;28;20045;-67
2022/05/19 00:09:13;;;;;;;5.40;2.90;;;14.00;99.90;;;;;;5070537;28;20051;-67
2022/05/19 00:11:42;;;;;;;3.60;2.92;;;13.90;99.90;;;;;;5068013;28;20106;-67
2022/05/19 00:14:09;;;;;;;5.55;2.85;;;13.90;99.90;;;;;;5070515;28;20048;-67
2022/05/19 00:16:36;;;;;;;;;;;13.80;99.90;;;;;;5071523;28;20558;-67
2022/05/19 00:19:03;;;;;;;5.43;3.28;;;13.80;99.90;;;;;;5059675;28;19920;-67
2022/05/19 00:21:30;;;;;;;;;;;13.80;99.90;;;;;;5066605;28;20428;-67
2022/05/19 00:23:57;;;;;;;5.68;3.67;;;13.70;99.90;;;;;;5070206;28;19928;-67
2022/05/19 00:26:24;;;;;;;4.95;3.60;;;13.70;99.90;;;;;;5066472;28;20101;-67
2022/05/19 00:28:51;;;;;;;5.50;3.10;;;13.70;99.90;;;;;;5064800;28;20098;-67
2022/05/19 00:31:18;;;;;;;6.15;3.28;;;13.70;99.90;;;;;;5070688;28;20045;-67
2022/05/19 00:33:45;;;;;;;6.35;3.47;;;13.70;99.90;;;;;;5071158;28;20052;-67
2022/05/19 00:36:14;;;;;;;5.32;3.38;;;13.60;99.90;;;;;;5070019;28;20045;-67
2022/05/19 00:38:42;;;;;;;5.68;3.67;;;13.60;99.90;;;;;;5070828;28;20040;-67
2022/05/19 00:41:10;;;;;;;7.20;3.95;;;13.50;99.90;;;;;;5090337;28;20100;-67
2022/05/19 00:43:59;;;;;;;8.52;3.72;;;13.50;99.90;;;;;;5091275;28;20140;-67
2022/05/19 00:46:32;;;;;;;6.85;3.58;;;13.40;99.90;;;;;;5070487;28;20115;-67
2022/05/19 00:49:09;;;;;;;5.10;3.55;;;13.30;99.90;;;;;;5062728;28;20094;-67
2022/05/19 00:51:50;;;;;;;7.43;4.50;;;13.30;99.90;;;;;;5070632;28;20052;-67
2022/05/19 00:54:24;;;;;;;8.15;3.67;;;13.20;99.90;;;;;;5067552;28;20048;-67
2022/05/19 00:57:00;;;;;;;4.15;3.05;;;13.20;99.90;;;;;;5077075;28;20049;-67
2022/05/19 00:59:33;;;;;;;7.88;3.90;;;13.20;99.90;;;;;;5070896;28;20105;-67
2022/05/19 01:02:01;;;;;;;7.80;3.60;;;13.20;99.90;;;;;;5069384;28;20055;-67
2022/05/19 01:04:38;;;;;;;4.85;3.65;;;13.20;99.90;;;;;;5040255;28;20045;-67
2022/05/19 01:07:13;;;;;;;6.68;4.05;;;13.20;99.90;;;;;;5049956;28;20049;-67
2022/05/19 01:09:40;;;;;;;10.38;3.88;;;13.20;99.90;;;;;;5050793;28;20037;-67
2022/05/19 01:12:09;;;;;;;12.63;4.20;;;13.20;99.90;;;;;;5053092;28;20179;-67
2022/05/19 01:14:36;;;;;;;8.35;4.32;;;13.20;99.90;;;;;;5077254;28;20097;-67
2022/05/19 01:17:05;;;;;;;10.25;4.15;;;13.20;99.90;;;;;;5090993;28;20101;-67
2022/05/19 01:19:40;;;;;;;5.10;3.17;;;13.20;99.90;;;;;;5086074;28;20044;-67
2022/05/19 01:22:10;;;;;;;7.78;4.03;;;13.20;99.90;;;;;;5082054;28;20724;-67
2022/05/19 01:24:50;;;;;;;7.28;3.33;;;13.10;99.90;;;;;;5074131;28;20078;-67
2022/05/19 01:27:17;;;;;;;5.60;3.33;;;13.10;99.90;;;;;;5073407;28;20037;-67
2022/05/19 01:29:43;;;;;;;5.88;3.83;;;13.00;99.90;;;;;;5082290;28;20112;-67
2022/05/19 01:32:23;;;;;;;12.20;3.63;;;12.90;99.90;;;;;;5073966;28;20052;-67
2022/05/19 01:34:51;;;;;;;5.68;3.50;;;12.90;99.90;;;;;;5074140;28;20040;-67
2022/05/19 01:37:18;;;;;;;5.57;4.20;;;12.90;99.90;;;;;;5072887;28;20059;-67
2022/05/19 01:40:24;;;;;;;8.40;4.13;;;12.90;99.90;;;;;;5076110;28;20462;-67
2022/05/19 01:43:07;;;;;;;6.07;3.80;;;12.90;99.90;;;;;;5094233;28;20044;-67
2022/05/19 01:45:49;;;;;;;8.10;4.65;;;12.90;99.90;;;;;;5085909;28;20105;-67
2022/05/19 01:48:25;;;;;;;7.45;4.20;;;12.80;99.90;;;;;;5073919;28;20057;-68
2022/05/19 01:51:13;;;;;;;7.65;4.38;;;12.80;99.90;;;;;;5073414;28;20047;-67
2022/05/19 01:54:17;;;;;;;8.88;4.70;;;12.80;99.90;;;;;;5043403;22;20528;-64
2022/05/19 01:56:54;;;;;;;7.97;4.53;;;12.80;99.90;;;;;;5033381;28;20049;-64
2022/05/19 01:59:37;;;;;;;7.03;4.53;;;12.80;99.90;;;;;;5033678;28;20461;-64
2022/05/19 02:02:05;;;;;;;7.50;3.47;;;12.80;99.90;;;;;;5036914;28;20120;-64
2022/05/19 02:04:43;;;;;;;5.03;3.75;;;12.70;99.90;;;;;;5049973;28;20489;-64
2022/05/19 02:07:15;;;;;;;5.20;3.63;;;12.80;99.90;;;;;;5053589;28;20087;-64
2022/05/19 02:09:50;;;;;;;5.78;3.20;;;12.70;99.90;;;;;;5037598;28;20045;-64
2022/05/19 02:12:17;;;;;;;6.30;3.97;;;12.70;99.90;;;;;;5047748;28;20484;-64
2022/05/19 02:15:04;;;;;;;;;;;12.60;99.90;;;;;;5053719;28;20064;-64
2022/05/19 02:17:33;;;;;;;8.15;4.13;;;12.60;99.90;;;;;;5040291;28;20399;-64
2022/05/19 02:20:07;;;;;;;11.15;4.53;;;12.60;99.90;;;;;;5037187;28;20529;-64
2022/05/19 02:22:38;;;;;;;7.82;5.22;;;12.60;99.90;;;;;;5053291;28;20041;-64
2022/05/19 02:25:26;;;;;;;10.52;5.60;;;12.60;99.90;;;;;;5052946;28;20045;-64
2022/05/19 02:28:00;;;;;;;;;;;12.60;99.90;;;;;;5044144;28;20094;-64
2022/05/19 02:30:30;;;;;;;8.95;3.90;;;12.70;99.90;;;;;;5052769;28;19975;-64
2022/05/19 02:32:57;;;;;;;5.28;3.47;;;12.70;99.90;;;;;;5052071;28;20040;-64
2022/05/19 02:35:24;;;;;;;9.65;5.13;;;12.60;99.90;;;;;;5042773;28;20041;-64
2022/05/19 02:37:54;;;;;;;5.93;4.35;;;12.60;99.90;;;;;;5044475;28;20448;-64
2022/05/19 02:40:23;;;;;;;7.97;4.65;;;12.60;99.90;;;;;;5052498;28;20064;-64
2022/05/19 02:42:50;;;;;;;10.27;5.20;;;12.60;99.90;;;;;;5037325;28;20726;-64
2022/05/19 02:45:18;;;;;;;7.22;5.43;;;12.60;99.90;;;;;;5044179;28;20041;-64
2022/05/19 02:47:45;;;;;;;10.25;5.45;;;12.70;99.90;;;;;;5052709;28;20063;-64
2022/05/19 02:50:13;;;;;;;;;;;12.70;99.90;;;;;;5050397;28;20450;-64
2022/05/19 02:52:42;;;;;;;8.77;5.70;;;12.70;99.90;;;;;;5051353;28;19920;-64
2022/05/19 02:55:09;;;;;;;;;;;12.70;99.90;;;;;;5072965;28;20070;-64
2022/05/19 02:57:36;;;;;;;12.52;5.22;;;12.70;99.90;;;;;;5072507;28;19924;-64
2022/05/19 03:00:08;;;;;;;10.43;5.60;;;12.60;99.90;;;;;;5045005;28;20460;-64
2022/05/19 03:02:35;;;;;;;10.43;5.22;;;12.70;99.90;;;;;;5069071;28;20094;-64
2022/05/19 03:05:03;;;;;;;10.57;6.30;;;12.60;99.90;;;;;;5054637;28;20040;-64
2022/05/19 03:07:29;;;;;;;10.85;5.90;;;12.60;99.90;;;;;;5072305;28;20505;-64
2022/05/19 03:09:56;;;;;;;7.35;5.40;;;12.60;99.90;;;;;;5047779;28;20442;-64
2022/05/19 03:12:23;;;;;;;6.82;5.10;;;12.60;99.90;;;;;;5056965;28;20040;-64
2022/05/19 03:14:49;;;;;;;9.23;5.95;;;12.60;99.90;;;;;;5052192;28;20452;-64
2022/05/19 03:17:16;;;;;;;7.07;5.50;;;12.60;99.90;;;;;;5052248;28;20044;-64
2022/05/19 03:19:43;;;;;;;9.20;5.07;;;12.60;99.90;;;;;;5058558;28;20106;-64
2022/05/19 03:22:10;;;;;;;7.25;5.05;;;12.70;99.90;;;;;;5051693;28;20536;-64
2022/05/19 03:24:36;;;;;;;7.85;5.20;;;12.70;99.90;;;;;;5051985;28;20041;-64
2022/05/19 03:27:03;;;;;;;7.03;5.22;;;12.60;99.90;;;;;;5048306;28;20084;-64
2022/05/19 03:29:31;;;;;;;10.85;5.85;;;12.60;99.90;;;;;;5059978;28;20049;-64
2022/05/19 03:31:59;;;;;;;11.95;6.07;;;12.60;99.90;;;;;;5051706;28;20405;-64
2022/05/19 03:34:25;;;;;;;;;;;12.60;99.90;;;;;;5052372;28;20106;-64
2022/05/19 03:36:52;;;;;;;6.68;5.40;;;12.60;99.90;;;;;;5035511;28;20285;-64
2022/05/19 03:39:19;;;;;;;8.88;6.18;;;12.60;99.90;;;;;;5057062;28;20504;-64
2022/05/19 03:41:46;;;;;;;15.18;6.35;;;12.50;99.90;;;;;;5051288;28;20052;-64
2022/05/19 03:44:13;;;;;;;7.95;5.35;;;12.50;99.90;;;;;;5046148;28;20088;-64
2022/05/19 03:46:39;;;;;;;11.55;6.45;;;12.50;99.90;;;;;;5059835;28;20102;-64
2022/05/19 03:49:08;;;;;;;9.52;6.13;;;12.40;99.90;;;;;;5051760;28;20045;-64
2022/05/19 03:51:36;;;;;;;9.02;5.55;;;12.40;99.90;;;;;;5045697;28;20560;-64
2022/05/19 03:54:03;;;;;;;8.90;5.50;;;12.30;99.90;;;;;;5033731;28;20037;-64
2022/05/19 03:56:31;;;;;;;8.18;5.28;;;12.30;99.90;;;;;;5051475;28;20049;-64
2022/05/19 03:58:57;;;;;;;6.28;4.40;;;12.30;99.90;;;;;;5051590;28;20091;-64
2022/05/19 04:01:24;;;;;;;9.65;5.30;;;12.20;99.90;;;;;;5043154;28;20045;-64
2022/05/19 04:03:51;;;;;;;7.30;4.97;;;12.30;99.90;;;;;;5059586;28;20508;-64
2022/05/19 04:06:19;;;;;;;7.40;4.72;;;12.30;99.90;;;;;;5051465;28;20045;-64
2022/05/19 04:08:48;;;;;;;9.10;5.00;;;12.40;99.90;;;;;;5050901;28;20043;-65
2022/05/19 04:11:14;;;;;;;;;;;12.40;99.90;;;;;;5051211;28;20438;-64
2022/05/19 04:13:41;;;;;;;7.10;4.68;;;12.40;99.90;;;;;;5069091;28;19921;-65
2022/05/19 04:16:08;;;;;;;6.82;5.35;;;12.50;99.90;;;;;;5061880;28;20409;-64
2022/05/19 04:18:35;;;;;;;;;;;12.60;99.90;;;;;;5046246;28;20497;-64
2022/05/19 04:21:03;;;;;;;7.93;5.22;;;12.70;99.90;;;;;;5058432;28;19974;-64
2022/05/19 04:23:30;;;;;;;10.68;5.68;;;12.80;99.90;;;;;;5051209;28;20041;-65
2022/05/19 04:25:57;;;;;;;12.93;7.75;;;12.80;99.90;;;;;;5030604;28;20440;-64
2022/05/19 04:28:25;;;;;;;9.25;5.70;;;12.80;99.90;;;;;;5059335;28;20497;-65
2022/05/19 04:30:51;;;;;;;7.43;5.05;;;12.80;99.90;;;;;;5051074;28;20041;-65
2022/05/19 04:33:18;;;;;;;6.97;5.28;;;12.90;99.90;;;;;;5051086;28;20049;-65
2022/05/19 04:35:45;;;;;;;5.68;4.55;;;12.80;99.90;;;;;;5050076;28;20045;-65
2022/05/19 04:38:14;;;;;;;9.07;5.70;;;12.80;99.90;;;;;;5059261;28;20053;-65
2022/05/19 04:40:47;;;;;;;10.00;5.20;;;12.90;99.90;;;;;;5050808;28;20103;-65
2022/05/19 04:43:23;;;;;;;7.40;5.28;;;12.90;99.90;;;;;;5051163;28;20390;-65
2022/05/19 04:45:51;;;;;;;9.38;5.20;;;13.10;99.90;;;;;;5045141;28;20045;-65
2022/05/19 04:48:19;;;;;;;11.07;5.90;;;13.10;99.90;;;;;;5058203;28;20048;-65
2022/05/19 04:50:49;;;;;;;9.20;5.63;;;13.20;99.90;;;;;;5050042;28;20040;-65
2022/05/19 04:53:16;;;;;;;11.43;5.80;;;13.30;99.90;;;;;;5045886;28;20045;-65
2022/05/19 04:55:42;;;;;;;10.95;5.85;;;13.40;99.90;;;;;;5052128;28;20104;-65
2022/05/19 04:58:09;;;;;;;9.30;5.68;;;13.40;99.90;;;;;;5036949;28;20121;-65
2022/05/19 05:00:36;;;;;;;9.57;4.72;;;13.40;99.90;;;;;;5049749;28;20397;-65
2022/05/19 05:03:04;;;;;;;9.75;5.65;;;13.50;99.90;;;;;;5038711;28;20421;-65
2022/05/19 05:05:31;;;;;;;6.35;5.20;;;13.60;99.90;;;;;;5053950;28;20528;-65
2022/05/19 05:07:58;;;;;;;7.07;5.28;;;13.60;99.90;;;;;;5053994;28;20052;-65
2022/05/19 05:10:25;;;;;;;11.55;5.38;;;13.60;99.90;;;;;;5050343;28;20397;-65
2022/05/19 05:12:52;;;;;;;11.73;5.75;;;13.70;99.90;;;;;;5065149;28;20048;-65
2022/05/19 05:15:19;;;;;;;12.18;5.85;;;13.80;99.90;;;;;;5051935;28;20048;-65
2022/05/19 05:17:45;;;;;;;8.30;4.80;;;13.90;99.90;;;;;;5044679;28;20050;-65
2022/05/19 05:20:13;;;;;;;9.75;5.07;;;14.00;99.90;;;;;;5056981;28;20044;-65
2022/05/19 05:22:40;;;;;;;9.93;4.55;;;14.00;99.90;;;;;;5053639;28;20041;-64
2022/05/19 05:25:14;;;;;;;9.52;5.20;;;14.00;99.90;;;;;;5054036;28;20393;-65
2022/05/19 05:27:41;;;;;;;9.65;5.20;;;14.10;99.90;;;;;;5052079;28;20049;-65
2022/05/19 05:30:09;;;;;;;12.05;4.63;;;14.20;99.90;;;;;;5053132;28;20048;-65
2022/05/19 05:32:36;;;;;;;10.57;4.97;;;14.30;99.90;;;;;;5053490;28;20041;-65
2022/05/19 05:35:04;;;;;;;10.65;5.43;;;14.30;99.90;;;;;;5053462;28;20048;-65
2022/05/19 05:37:31;;;;;;;12.00;4.88;;;14.50;99.90;;;;;;5034987;28;20041;-65
2022/05/19 05:39:58;;;;;;;10.23;4.70;;;14.50;99.90;;;;;;5033644;28;20053;-64
2022/05/19 05:42:25;;;;;;;9.48;4.70;;;14.60;99.90;;;;;;5033748;28;20503;-65
2022/05/19 05:44:53;;;;;;;7.88;4.90;;;14.70;99.90;;;;;;5032345;28;20119;-65
2022/05/19 05:47:24;;;;;;;8.05;4.97;;;14.80;99.90;;;;;;5052267;28;20465;-65
2022/05/19 05:49:51;;;;;;;7.90;5.32;;;14.90;99.90;;;;;;5073501;28;20048;-65
2022/05/19 05:52:18;;;;;;;7.18;4.90;;;15.00;99.90;;;;;;5059601;28;20045;-64
2022/05/19 05:54:45;;;;;;;8.18;5.15;;;15.10;99.90;;;;;;5061966;28;20040;-65
2022/05/19 05:57:11;;;;;;;8.30;5.28;;;15.20;99.90;;;;;;5052972;28;20092;-65
2022/05/19 05:59:38;;;;;;;8.00;4.90;;;15.10;99.90;;;;;;5053541;28;20052;-65
2022/05/19 06:02:05;;;;;;;10.02;4.70;;;15.10;99.90;;;;;;5053429;28;20044;-65
2022/05/19 06:04:33;;;;;;;7.13;5.07;;;15.20;99.90;;;;;;5056728;28;20048;-65
2022/05/19 06:06:59;;;;;;;9.20;5.32;;;15.30;99.90;;;;;;5052619;28;20591;-64
2022/05/19 06:09:26;;;;;;;10.23;5.00;;;15.50;99.90;;;;;;5052673;28;20043;-64
2022/05/19 06:11:53;;;;;;;11.00;5.47;;;15.70;99.90;;;;;;5060418;28;20052;-64
2022/05/19 06:14:20;;;;;;;6.85;5.35;;;15.80;99.90;;;;;;5053349;28;20056;-65
2022/05/19 06:16:46;;;;;;;6.55;4.95;;;15.90;99.90;;;;;;5034856;28;20441;-65
2022/05/19 06:19:13;;;;;;;7.72;5.25;;;16.10;99.90;;;;;;5035641;28;20060;-65
2022/05/19 06:21:40;;;;;;;6.82;4.82;;;16.20;99.90;;;;;;5035037;28;20053;-65
2022/05/19 06:24:08;;;;;;;6.97;4.32;;;16.40;99.90;;;;;;5053204;28;20091;-65
2022/05/19 06:26:37;;;;;;;8.20;4.38;;;16.50;99.90;;;;;;5052846;28;20045;-64
2022/05/19 06:29:04;;;;;;;6.95;4.22;;;16.60;99.90;;;;;;5050517;28;20047;-65
2022/05/19 06:31:31;;;;;;;10.43;5.15;;;16.80;99.90;;;;;;5052146;28;20041;-65
2022/05/19 06:33:58;;;;;;;;;;;17.00;99.90;;;;;;5053451;28;20045;-64
2022/05/19 06:36:26;;;;;;;8.43;4.43;;;17.10;99.90;;;;;;5052881;28;19925;-65
2022/05/19 06:38:53;;;;;;;7.65;4.45;;;17.30;99.90;;;;;;5047496;28;20094;-63
2022/05/19 06:44:05;;;;;;;6.63;5.10;;;17.60;99.90;;;;;;5052350;28;19920;-65
2022/05/19 06:46:33;;;;;;;7.25;4.57;;;17.90;99.90;;;;;;5045384;28;20517;-65
2022/05/19 06:49:02;;;;;;;7.50;4.25;;;18.00;99.90;;;;;;5048413;28;20060;-65
2022/05/19 06:51:31;;;;;;;9.82;4.60;;;18.20;99.90;;;;;;5057034;28;20029;-65
2022/05/19 06:53:59;;;;;;;6.78;4.32;;;18.40;99.90;;;;;;5052089;28;20452;-64
2022/05/19 06:56:26;;;;;;;7.32;4.30;;;18.40;99.90;;;;;;5053768;28;20405;-64
2022/05/19 06:58:53;;;;;;;8.70;4.22;;;18.60;99.90;;;;;;5046951;28;20124;-65
2022/05/19 07:01:20;;;;;;;8.02;4.88;;;18.70;99.90;;;;;;5051657;28;20045;-65
2022/05/19 07:03:47;;;;;;;5.57;4.70;;;18.90;99.90;;;;;;5058195;28;20036;-65
2022/05/19 07:06:14;;;;;;;5.90;4.47;;;19.00;99.90;;;;;;5056298;28;20094;-65
2022/05/19 07:08:41;;;;;;;7.18;4.32;;;19.20;99.90;;;;;;5067658;28;20052;-64
2022/05/19 07:11:24;;;;;;;4.15;3.75;;;19.30;99.90;;;;;;5063468;28;20537;-64
2022/05/19 07:13:57;;;;;;;7.13;4.10;;;19.30;99.90;;;;;;5025591;28;20072;-65
2022/05/19 07:16:24;;;;;;;4.55;3.75;;;19.50;99.90;;;;;;5051945;28;20497;-65
2022/05/19 07:20:43;;;;;;;9.00;4.10;;;19.70;99.90;;;;;;5051464;28;20105;-65
2022/05/19 07:21:42;;;;;;;6.75;4.45;;;19.80;99.90;;;;;;5048987;28;20041;-64
2022/05/19 07:24:16;;;;;;;8.25;4.40;;;20.00;99.90;;;;;;5051749;28;20124;-64
2022/05/19 07:26:48;;;;;;;9.43;5.05;;;20.00;99.90;;;;;;5051943;28;20044;-65
2022/05/19 07:29:16;;;;;;;7.70;4.40;;;20.10;99.90;;;;;;5048207;28;20041;-64
2022/05/19 07:31:43;;;;;;;5.82;3.80;;;20.10;99.90;;;;;;5054763;28;20040;-65
2022/05/19 07:34:11;;;;;;;7.95;3.78;;;20.30;99.90;;;;;;5051630;28;20386;-64
2022/05/19 07:36:38;;;;;;;5.88;3.92;;;20.40;99.90;;;;;;5051529;28;20687;-64
2022/05/19 07:39:05;;;;;;;;;;;20.50;99.90;;;;;;5044028;28;20049;-65
2022/05/19 07:41:33;;;;;;;5.18;4.03;;;20.80;99.90;;;;;;5050608;28;19921;-64
2022/05/19 07:44:02;;;;;;;5.82;3.50;;;20.80;99.90;;;;;;5051573;28;20098;-65
2022/05/19 07:46:29;;;;;;;5.53;3.88;;;20.80;99.90;;;;;;5051377;28;20045;-65
2022/05/19 07:48:57;;;;;;;5.97;3.40;;;20.90;99.90;;;;;;5047458;28;20067;-64
2022/05/19 07:51:26;;;;;;;4.40;3.95;;;21.10;99.90;;;;;;5050642;28;20037;-64
2022/05/19 07:58:06;;;;;;;5.90;4.60;;;21.50;99.90;;;;;;5051390;28;20463;-65
2022/05/19 08:00:33;;;;;;;6.13;4.10;;;21.90;99.90;;;;;;5050992;28;20390;-65
2022/05/19 08:03:00;;;;;;;9.93;4.20;;;22.00;99.90;;;;;;5042795;28;20081;-65
2022/05/19 08:05:27;;;;;;;5.13;3.78;;;22.20;99.90;;;;;;5050997;28;20037;-66
2022/05/19 08:07:54;;;;;;;;;;;22.10;99.90;;;;;;5051518;28;20056;-65
2022/05/19 08:10:21;;;;;;;6.90;4.30;;;22.10;99.90;;;;;;5044918;28;20436;-65
2022/05/19 08:15:46;;;;;;;4.47;3.50;;;22.40;99.90;;;;;;5021754;28;20054;-65
2022/05/19 08:18:15;;;;;;;6.15;3.70;;;22.50;99.90;;;;;;5048102;28;20049;-65
2022/05/19 08:20:46;;;;;;;5.90;4.65;;;22.60;99.90;;;;;;5051006;28;20501;-65
2022/05/19 08:23:17;;;;;;;5.45;3.92;;;22.50;99.90;;;;;;5051225;28;20463;-65
2022/05/19 08:25:45;;;;;;;7.18;4.30;;;22.80;99.90;;;;;;5045895;28;20041;-65
2022/05/19 08:28:16;;;;;;;5.70;3.97;;;23.00;99.90;;;;;;5050999;28;20056;-66
2022/05/19 08:30:49;;;;;;;5.90;3.83;;;23.20;99.90;;;;;;5050474;28;20440;-65
2022/05/19 08:33:18;;;;;;;5.78;3.63;;;23.50;99.90;;;;;;5055241;28;20060;-65
2022/05/19 08:35:45;;;;;;;8.63;4.20;;;23.40;99.90;;;;;;5048961;28;20049;-65
2022/05/19 08:38:11;;;;;;;;;;;23.60;99.90;;;;;;5055457;28;20111;-65
2022/05/19 08:40:58;;;;;;;4.60;3.70;;;23.80;99.90;;;;;;5054947;28;19920;-65
2022/05/19 08:43:30;;;;;;;6.10;3.65;;;23.90;99.90;;;;;;5051857;28;20107;-65
2022/05/19 08:46:01;;;;;;;7.68;4.03;;;24.00;99.90;;;;;;5046198;28;20037;-66
2022/05/19 08:48:29;;;;;;;7.18;4.10;;;23.90;99.60;;;;;;5054854;28;20060;-66
2022/05/19 08:51:00;;;;;;;5.88;3.65;;;24.20;99.90;;;;;;5052485;28;20048;-65
2022/05/19 08:53:35;;;;;;;6.68;3.90;;;24.30;99.20;;;;;;5059684;28;20047;-66
2022/05/19 08:56:19;;;;;;;6.63;3.72;;;24.50;99.00;;;;;;5074926;28;20049;-65
2022/05/19 08:59:18;;;;;;;6.07;3.75;;;24.60;99.20;;;;;;5074772;28;20033;-65
2022/05/19 09:01:55;;;;;;;7.35;4.05;;;24.70;99.90;;;;;;5092597;28;20078;-65
2022/05/19 09:04:56;;;;;;;4.00;3.60;;;24.70;97.90;;;;;;5094405;28;20101;-65
2022/05/19 09:10:28;;;;;;;5.53;4.20;;;24.70;97.50;;;;;;5087905;28;20044;-65
2022/05/19 09:13:17;;;;;;;4.90;3.90;;;24.70;97.70;;;;;;5094471;28;20051;-65
2022/05/19 09:15:46;;;;;;;5.20;4.13;;;24.80;98.60;;;;;;5093375;28;20046;-65
2022/05/19 09:18:20;;;;;;;4.32;3.90;;;25.00;99.80;;;;;;5090792;28;20496;-65
2022/05/19 09:20:56;;;;;;;6.20;3.90;;;25.10;97.80;;;;;;5094124;28;20400;-65
2022/05/19 09:23:24;;;;;;;4.78;4.15;;;25.40;98.80;;;;;;5094380;28;20040;-65
2022/05/19 09:26:01;;;;;;;5.00;4.18;;;25.80;98.90;;;;;;5091490;28;20044;-66
2022/05/19 09:28:28;;;;;;;6.90;4.07;;;25.90;95.90;;;;;;5090254;28;20036;-65
2022/05/19 09:30:56;;;;;;;5.05;4.20;;;26.00;96.30;;;;;;5093828;28;20048;-65
2022/05/19 09:33:32;;;;;;;6.45;4.38;;;26.20;96.00;;;;;;5092881;28;20047;-66
2022/05/19 09:36:00;;;;;;;7.75;4.80;;;26.20;94.50;;;;;;5086072;28;20036;-65
2022/05/19 09:38:37;;;;;;;8.07;4.45;;;25.90;95.70;;;;;;5094081;28;20039;-66
2022/05/19 09:41:21;;;;;;;5.68;4.00;;;25.90;94.90;;;;;;5093344;28;20085;-66
2022/05/19 09:43:56;;;;;;;6.38;3.95;;;25.90;95.40;;;;;;5092603;28;20051;-65
2022/05/19 09:46:24;;;;;;;8.10;4.70;;;26.20;94.20;;;;;;5094039;28;20040;-66
2022/05/19 09:49:06;;;;;;;5.03;4.45;;;26.30;94.40;;;;;;5076255;28;20048;-66
2022/05/19 09:51:42;;;;;;;6.75;4.20;;;26.20;93.80;;;;;;5091209;28;20062;-65
2022/05/19 09:54:12;;;;;;;8.55;4.50;;;26.40;94.70;;;;;;5093679;28;20377;-65
2022/05/19 09:56:49;;;;;;;4.72;4.20;;;26.50;94.00;;;;;;5093879;28;20439;-65
2022/05/19 09:59:44;;;;;;;10.60;4.55;;;26.60;93.80;;;;;;5093851;28;20040;-65
2022/05/19 10:02:23;;;;;;;7.78;4.43;;;26.70;93.40;;;;;;5087246;28;20051;-66
2022/05/19 10:04:58;;;;;;;6.05;4.03;;;26.70;92.70;;;;;;5093577;28;20496;-65
2022/05/19 10:07:35;;;;;;;6.20;4.15;;;26.70;93.30;;;;;;5093680;28;20085;-65
2022/05/19 10:10:15;;;;;;;9.13;4.47;;;27.00;94.30;;;;;;5088415;28;20101;-66
2022/05/19 10:12:47;;;;;;;4.85;3.70;;;27.30;93.60;;;;;;5093198;28;20113;-65
2022/05/19 10:15:18;;;;;;;4.10;3.67;;;27.40;92.30;;;;;;5093475;28;20118;-65
2022/05/19 10:18:03;;;;;;;5.00;3.90;;;27.40;90.20;;;;;;5093485;28;20040;-65
2022/05/19 10:20:37;;;;;;;5.65;4.10;;;27.30;90.70;;;;;;5088969;28;20405;-65
2022/05/19 10:23:59;;;;;;;7.70;4.28;;;27.50;92.90;;;;;;5073113;28;20044;-65
2022/05/19 10:26:29;;;;;;;5.75;3.90;;;27.60;93.90;;;;;;5073009;28;20044;-65
2022/05/19 10:32:27;;;;;;;8.18;4.43;;;27.50;94.10;;;;;;5072712;28;20497;-65
2022/05/19 10:35:30;;;;;;;7.93;4.30;;;27.60;94.90;;;;;;5072978;28;20049;-66
2022/05/19 10:38:18;;;;;;;5.90;4.15;;;27.70;93.70;;;;;;5084725;28;20446;-65
2022/05/19 10:41:00;;;;;;;9.10;4.87;;;27.70;93.70;;;;;;5092656;28;20101;-65
2022/05/19 10:43:42;;;;;;;6.43;4.30;;;27.30;94.60;;;;;;5092936;28;20044;-65
2022/05/19 10:46:14;;;;;;;10.13;4.50;;;27.50;93.80;;;;;;5084724;28;20043;-66
2022/05/19 10:48:59;;;;;;;5.97;4.15;;;27.40;93.10;;;;;;5092839;28;20046;-65
2022/05/19 10:51:52;;;;;;;4.38;3.97;;;27.60;92.20;;;;;;5092185;28;20048;-65
2022/05/19 10:54:52;;;;;;;5.15;4.43;;;27.80;92.40;;;;;;5078964;28;20835;-65
2022/05/19 10:57:38;;;;;;;7.93;4.57;;;28.10;92.80;;;;;;5087169;28;20044;-65
2022/05/19 11:00:15;;;;;;;6.28;4.63;;;28.10;94.20;;;;;;5092320;28;20078;-65
2022/05/19 11:03:02;;;;;;;6.28;4.10;;;28.10;92.90;;;;;;5088020;28;20052;-65
2022/05/19 11:05:46;;;;;;;7.15;4.38;;;28.30;91.40;;;;;;5074270;28;20389;-66
2022/05/19 11:08:23;;;;;;;6.63;3.80;;;28.50;92.80;;;;;;5092471;28;20407;-66
2022/05/19 11:11:02;;;;;;;5.25;3.78;;;28.60;90.30;;;;;;5088604;28;20040;-66
2022/05/19 11:13:49;;;;;;;4.03;3.33;;;28.60;90.30;;;;;;5092150;28;20499;-65
2022/05/19 11:16:41;;;;;;;5.30;3.55;;;28.70;90.20;;;;;;5092206;28;20036;-65
2022/05/19 11:19:23;;;;;;;8.05;3.75;;;29.10;86.60;;;;;;5090755;28;20040;-65
2022/05/19 11:22:02;;;;;;;7.38;3.95;;;29.40;88.90;;;;;;5092313;28;20400;-66
2022/05/19 11:26:23;;;;;;;6.70;3.95;;;29.40;88.90;;;;;;5092166;28;20105;-65
2022/05/19 11:27:34;;;;;;;4.53;3.30;;;29.50;84.30;;;;;;5086563;28;20036;-65
2022/05/19 11:30:14;;;;;;;5.47;4.10;;;29.60;84.50;;;;;;5083792;28;20047;-65
2022/05/19 11:32:42;;;;;;;4.40;3.78;;;29.60;85.40;;;;;;5092101;28;20043;-65
2022/05/19 11:35:35;;;;;;;6.18;3.65;;;29.60;83.70;;;;;;5092035;28;20044;-65
2022/05/19 11:38:23;;;;;;;4.82;3.70;;;29.80;87.80;;;;;;5084036;28;20071;-65
2022/05/19 11:41:02;;;;;;;6.13;4.00;;;29.80;87.00;;;;;;5091368;28;20051;-66
2022/05/19 11:43:56;;;;;;;6.63;3.10;;;29.50;86.90;;;;;;5091940;28;20502;-66
2022/05/19 11:46:34;;;;;;;8.73;3.63;;;29.40;86.00;;;;;;5090350;28;20048;-66
2022/05/19 11:55:16;;;;;;;6.03;3.40;;;29.60;86.20;;;;;;5074725;28;20043;-66
2022/05/19 11:57:52;;;;;;;5.05;3.28;;;29.30;88.30;;;;;;5091723;28;20081;-65
2022/05/19 12:00:29;;;;;;;5.85;3.92;;;29.10;90.00;;;;;;5091256;28;20040;-66
2022/05/19 12:03:12;;;;;;;3.83;3.42;;;28.80;89.90;;;;;;5091444;28;20126;-65
2022/05/19 12:06:03;;;;;;;4.97;3.95;;;28.70;87.50;;;;;;5088559;28;20048;-66
2022/05/19 12:09:11;;;;;;;8.27;3.63;;;28.80;92.30;;;;;;5079173;28;20097;-65
2022/05/19 12:11:44;;;;;;;4.93;3.63;;;28.70;92.50;;;;;;5090680;28;20040;-66
2022/05/19 12:14:11;;;;;;;7.47;3.78;;;28.70;92.30;;;;;;5084995;28;20032;-65
2022/05/19 12:16:58;;;;;;;4.60;4.20;;;28.50;92.30;;;;;;5091322;28;20044;-65
2022/05/19 12:19:51;;;;;;;7.05;4.15;;;28.10;92.10;;;;;;5086978;28;20098;-66
2022/05/19 12:22:36;;;;;;;6.47;4.18;;;27.50;91.90;;;;;;5071197;28;20417;-66
2022/05/19 12:25:19;;;;;;;8.05;3.88;;;27.60;92.60;;;;;;5071111;28;20060;-66
2022/05/19 12:28:05;;;;;;;5.97;4.53;;;28.20;93.00;;;;;;5083981;28;20081;-66
2022/05/19 12:34:00;;;;;;;14.90;4.57;;;28.20;93.90;;;;;;5089471;28;20561;-66
2022/05/19 12:36:38;;;;;;;6.93;4.30;;;28.40;92.30;;;;;;5088590;28;20032;-66
2022/05/19 12:39:17;;;;;;;6.22;4.30;;;28.70;93.80;;;;;;5090220;28;20048;-67
2022/05/19 12:41:50;;;;;;;14.45;4.25;;;29.00;94.20;;;;;;5090484;28;20044;-66
2022/05/19 12:44:50;;;;;;;7.40;3.90;;;29.10;93.30;;;;;;5088857;28;20090;-66
2022/05/19 12:47:23;;;;;;;10.27;4.75;;;28.90;91.70;;;;;;5085275;28;20048;-66
2022/05/19 12:50:43;;;;;;;8.80;4.35;;;28.80;93.30;;;;;;5088088;28;20040;-66
2022/05/19 12:53:38;;;;;;;10.38;4.47;;;28.50;94.20;;;;;;5062246;28;20063;-66
2022/05/19 12:56:06;;;;;;;6.55;4.38;;;28.00;93.70;;;;;;5089952;28;20121;-66
2022/05/19 12:58:42;;;;;;;6.38;3.70;;;27.60;93.60;;;;;;5088180;28;20307;-66
2022/05/19 13:01:16;;;;;;;5.93;3.90;;;27.20;93.60;;;;;;5090192;28;20055;-66
2022/05/19 13:03:51;;;;;;;8.07;4.53;;;27.00;94.50;;;;;;5083062;28;20048;-66
2022/05/19 13:06:22;;;;;;;5.47;4.15;;;27.10;94.60;;;;;;5091007;28;20040;-66
2022/05/19 13:08:54;;;;;;;4.60;4.03;;;27.70;93.50;;;;;;5091094;28;20723;-66
2022/05/19 13:11:31;;;;;;;8.85;4.38;;;28.20;93.90;;;;;;5088664;28;20109;-66
2022/05/19 13:14:04;;;;;;;7.80;4.43;;;28.00;94.60;;;;;;5070848;28;20072;-66
2022/05/19 13:16:36;;;;;;;6.15;3.95;;;27.50;93.90;;;;;;5071678;28;20028;-66
2022/05/19 13:19:14;;;;;;;6.20;4.18;;;27.10;93.60;;;;;;5078528;28;20047;-66
2022/05/19 13:21:45;;;;;;;8.02;3.97;;;27.50;94.50;;;;;;5091811;28;20044;-66
2022/05/19 13:24:15;;;;;;;9.52;4.05;;;27.70;93.50;;;;;;5091406;28;20632;-67
2022/05/19 13:26:43;;;;;;;6.90;4.15;;;27.60;93.00;;;;;;5091349;28;20040;-67
2022/05/19 13:32:07;;;;;;;7.65;3.85;;;28.30;93.60;;;;;;5091980;28;20028;-66
2022/05/19 13:34:46;;;;;;;9.70;4.50;;;29.00;93.70;;;;;;5089428;28;20042;-67
2022/05/19 13:37:28;;;;;;;6.28;3.85;;;28.90;92.40;;;;;;5088014;28;20036;-66
2022/05/19 13:40:13;;;;;;;5.40;4.18;;;29.00;92.30;;;;;;5091446;28;20484;-66
2022/05/19 13:42:51;;;;;;;4.05;3.47;;;29.30;92.90;;;;;;5092561;28;20043;-67
2022/05/19 13:45:24;;;;;;;6.25;3.95;;;29.30;93.00;;;;;;5072618;28;20052;-67
2022/05/19 13:47:51;;;;;;;4.88;3.83;;;29.40;92.00;;;;;;5092849;28;20127;-67